Time;durP1;ratioP1;P1;durP2;ratioP2;P2;SDS_P1;SDS_P2;PMS_P1;PMS_P2;Temp;Humidity;BMP_temperature;BMP_pressure;BME280_temperature;BME280_humidity;BME280_pressure;Samples;Min_cycle;Max_cycle;Signal;HPM_P1;HPM_P2
2021/07/16 00:00:51;;;;;;;4.55;2.47;;;;;;;11.68;89.91;90854.53;4972121;28;20502;-86
2021/07/16 00:03:20;;;;;;;4.68;2.63;;;;;;;11.85;89.00;90853.50;4955369;28;20027;-85
2021/07/16 00:05:54;;;;;;;4.40;2.00;;;;;;;11.77;88.66;90851.78;4970761;28;20027;-87
2021/07/16 00:08:29;;;;;;;3.67;2.10;;;;;;;11.73;88.66;90856.13;4971278;28;20459;-86
2021/07/16 00:11:07;;;;;;;5.85;2.08;;;;;;;11.63;89.33;90854.81;4954954;28;20574;-86
2021/07/16 00:13:46;;;;;;;4.15;1.80;;;;;;;11.62;89.71;90857.72;4974585;28;20029;-86
2021/07/16 00:16:15;;;;;;;2.80;1.90;;;;;;;11.63;89.58;90859.25;4974402;28;20022;-86
2021/07/16 00:18:54;;;;;;;3.05;2.28;;;;;;;11.57;89.91;90857.97;4958505;28;20031;-86
2021/07/16 00:21:21;;;;;;;6.45;2.30;;;;;;;11.52;90.15;90866.03;4975249;28;20029;-86
2021/07/16 00:24:01;;;;;;;5.72;2.15;;;;;;;11.68;90.24;90869.44;4974427;28;20082;-86
2021/07/16 00:26:42;;;;;;;4.95;2.17;;;;;;;11.61;89.46;90864.03;4989500;28;20498;-86
2021/07/16 00:29:19;;;;;;;3.72;1.70;;;;;;;11.77;88.70;90872.66;4993841;28;20019;-85
2021/07/16 00:31:52;;;;;;;2.72;1.70;;;;;;;11.74;88.65;90873.34;4993396;28;20026;-86
2021/07/16 00:34:30;;;;;;;3.33;1.80;;;;;;;11.61;89.21;90874.50;4993698;28;20028;-87
2021/07/16 00:37:09;;;;;;;4.55;1.65;;;;;;;11.55;89.53;90870.59;4993441;28;20030;-86
2021/07/16 00:39:44;;;;;;;4.22;1.65;;;;;;;11.53;89.75;90872.81;4993431;28;20049;-86
2021/07/16 00:42:23;;;;;;;2.78;1.80;;;;;;;11.52;89.91;90877.25;4993466;28;20438;-84
2021/07/16 00:44:54;;;;;;;2.53;1.80;;;;;;;11.53;90.13;90873.56;4993669;28;20027;-86
2021/07/16 00:47:28;;;;;;;8.35;2.20;;;;;;;11.47;90.21;90870.41;4993195;28;20029;-87
2021/07/16 00:50:05;;;;;;;3.58;1.98;;;;;;;11.47;90.22;90872.28;4992842;28;20498;-86
2021/07/16 00:52:47;;;;;;;6.15;2.58;;;;;;;11.52;90.36;90873.88;4994442;28;20398;-86
2021/07/16 00:55:18;;;;;;;4.22;1.95;;;;;;;11.51;90.81;90873.13;4977012;28;20478;-86
2021/07/16 00:57:53;;;;;;;7.43;2.30;;;;;;;11.55;90.51;90865.38;4992753;28;20036;-87
2021/07/16 01:00:35;;;;;;;4.95;2.15;;;;;;;11.58;89.83;90867.31;4977691;28;20049;-86
2021/07/16 01:03:14;;;;;;;4.20;2.05;;;;;;;11.57;90.34;90866.56;4994387;28;20473;-86
2021/07/16 01:05:47;;;;;;;3.80;2.20;;;;;;;11.54;90.43;90862.00;4977525;28;20092;-86
2021/07/16 01:08:28;;;;;;;6.03;2.45;;;;;;;11.49;90.51;90860.41;4977098;28;20037;-86
2021/07/16 01:11:08;;;;;;;3.45;2.10;;;;;;;11.47;90.72;90861.84;4977347;28;20509;-86
2021/07/16 01:13:45;;;;;;;3.38;2.00;;;;;;;11.53;90.80;90857.91;4978131;28;20117;-86
2021/07/16 01:16:24;;;;;;;4.38;2.60;;;;;;;11.53;90.31;90860.50;4961315;28;20499;-86
2021/07/16 01:18:58;;;;;;;3.60;2.78;;;;;;;11.46;90.54;90863.69;4977094;28;20398;-86
2021/07/16 01:21:43;;;;;;;4.70;2.30;;;;;;;11.53;90.36;90862.34;4976973;28;20022;-86
2021/07/16 01:24:24;;;;;;;4.18;2.30;;;;;;;11.54;90.58;90869.09;4977173;28;20034;-86
2021/07/16 01:26:55;;;;;;;5.30;2.40;;;;;;;11.53;90.59;90865.72;4976622;28;20031;-86
2021/07/16 01:29:30;;;;;;;4.38;2.30;;;;;;;11.59;90.07;90853.97;4976540;28;20467;-87
2021/07/16 01:32:08;;;;;;;2.90;2.08;;;;;;;11.57;90.29;90863.22;4977232;28;20037;-86
2021/07/16 01:34:47;;;;;;;3.28;2.00;;;;;;;11.57;90.40;90868.44;4993642;28;20108;-86
2021/07/16 01:37:26;;;;;;;3.35;1.90;;;;;;;11.56;90.48;90851.25;4976103;28;20160;-88
2021/07/16 01:40:01;;;;;;;3.13;1.50;;;;;;;11.53;90.45;90847.47;4960726;28;20385;-86
2021/07/16 01:42:40;;;;;;;3.13;2.00;;;;;;;11.49;91.03;90846.63;4992353;28;20026;-88
2021/07/16 01:45:29;;;;;;;2.83;1.83;;;;;;;11.59;90.86;90855.78;4977161;28;20386;-87
2021/07/16 01:48:13;;;;;;;6.55;2.60;;;;;;;11.67;89.96;90847.06;4976603;28;20421;-87
2021/07/16 01:50:51;;;;;;;3.90;1.80;;;;;;;11.78;89.33;90840.25;4977470;28;20033;-87
2021/07/16 01:53:33;;;;;;;2.70;2.33;;;;;;;11.79;88.97;90827.94;4993179;28;20033;-86
2021/07/16 01:56:14;;;;;;;2.95;2.00;;;;;;;11.73;89.07;90824.81;4992273;28;20030;-86
2021/07/16 01:58:54;;;;;;;2.60;1.77;;;;;;;11.72;89.32;90828.53;4976863;28;20054;-86
2021/07/16 02:01:31;;;;;;;3.17;1.73;;;;;;;11.50;90.51;90837.69;4991869;28;20038;-86
2021/07/16 02:04:07;;;;;;;3.40;2.30;;;;;;;11.46;90.91;90837.59;4976905;28;20509;-87
2021/07/16 02:06:48;;;;;;;4.47;2.47;;;;;;;11.38;91.14;90838.50;4991811;28;20520;-86
2021/07/16 02:09:27;;;;;;;5.75;2.33;;;;;;;11.31;91.32;90834.94;4991754;28;20446;-86
2021/07/16 02:12:04;;;;;;;5.10;2.20;;;;;;;11.35;91.26;90826.13;4990802;28;20026;-86
2021/07/16 02:14:44;;;;;;;3.85;2.30;;;;;;;11.34;91.18;90822.00;4990983;28;20037;-86
2021/07/16 02:17:20;;;;;;;4.30;2.08;;;;;;;11.34;91.56;90824.63;4991500;28;20022;-87
2021/07/16 02:19:59;;;;;;;3.33;2.50;;;;;;;11.45;91.00;90832.72;4975930;28;20454;-86
2021/07/16 02:22:37;;;;;;;4.22;2.40;;;;;;;11.44;90.81;90834.53;4975721;28;20026;-86
2021/07/16 02:25:09;;;;;;;4.25;2.30;;;;;;;11.42;91.07;90830.78;4960089;28;20022;-86
2021/07/16 02:27:48;;;;;;;3.00;1.92;;;;;;;11.44;91.10;90834.53;4975785;28;20026;-86
2021/07/16 02:30:25;;;;;;;5.07;2.17;;;;;;;11.44;90.79;90828.56;4960813;28;20030;-86
2021/07/16 02:32:59;;;;;;;3.63;2.05;;;;;;;11.48;90.48;90839.84;4991434;28;20034;-86
2021/07/16 02:35:38;;;;;;;5.40;2.40;;;;;;;11.42;90.76;90836.75;4976018;28;20038;-86
2021/07/16 02:38:19;;;;;;;3.00;2.25;;;;;;;11.39;90.98;90839.28;4976067;28;20031;-86
2021/07/16 02:40:59;;;;;;;5.88;2.40;;;;;;;11.36;91.04;90848.50;4975694;28;20446;-86
2021/07/16 02:43:38;;;;;;;3.92;2.22;;;;;;;11.28;91.38;90841.59;4991210;28;20026;-86
2021/07/16 02:46:15;;;;;;;4.32;2.38;;;;;;;11.28;91.43;90849.44;4975787;28;20027;-87
2021/07/16 02:48:49;;;;;;;4.95;2.50;;;;;;;11.23;91.42;90839.97;4959425;28;20022;-86
2021/07/16 02:51:30;;;;;;;4.38;2.22;;;;;;;11.31;91.24;90847.97;4975487;28;20034;-86
2021/07/16 02:54:09;;;;;;;3.30;2.17;;;;;;;11.31;91.23;90858.41;4975855;28;20031;-86
2021/07/16 02:56:44;;;;;;;5.18;2.88;;;;;;;11.24;91.54;90853.81;4975783;28;20034;-86
2021/07/16 02:59:17;;;;;;;13.88;2.60;;;;;;;11.25;91.36;90857.91;4990669;28;20026;-86
2021/07/16 03:02:05;;;;;;;8.57;2.80;;;;;;;11.22;91.12;90853.34;4990873;28;20034;-86
2021/07/16 03:04:40;;;;;;;4.03;2.40;;;;;;;11.13;91.30;90855.34;4990712;28;20503;-86
2021/07/16 03:07:14;;;;;;;4.03;2.13;;;;;;;11.18;91.01;90858.47;4975711;28;20419;-88
2021/07/16 03:09:50;;;;;;;2.85;2.08;;;;;;;11.16;91.09;90860.66;5026058;23;20132;-85
2021/07/16 03:12:25;;;;;;;2.75;2.00;;;;;;;11.11;90.50;90847.09;4976193;28;20026;-85
2021/07/16 03:14:59;;;;;;;5.90;2.30;;;;;;;11.15;90.05;90858.38;4975871;28;20505;-85
2021/07/16 03:17:38;;;;;;;4.47;2.88;;;;;;;11.01;90.82;90854.31;4991123;28;20427;-85
2021/07/16 03:20:16;;;;;;;11.10;2.70;;;;;;;11.00;91.04;90855.41;4987767;28;20062;-85
2021/07/16 03:22:55;;;;;;;8.10;2.60;;;;;;;10.97;90.79;90868.34;4971860;28;20050;-86
2021/07/16 03:25:38;;;;;;;26.27;2.72;;;;;;;10.95;90.88;90866.06;4956074;28;20503;-85
2021/07/16 03:28:18;;;;;;;9.93;2.80;;;;;;;10.87;91.16;90863.59;4974572;28;20294;-84
2021/07/16 03:31:01;;;;;;;5.72;2.40;;;;;;;10.82;91.17;90866.44;4973355;28;20030;-85
2021/07/16 03:33:39;;;;;;;5.00;2.40;;;;;;;10.76;90.73;90864.03;4973159;28;20023;-85
2021/07/16 03:36:19;;;;;;;4.22;2.55;;;;;;;10.86;90.93;90857.63;4973496;28;20398;-85
2021/07/16 03:38:56;;;;;;;3.72;2.40;;;;;;;10.91;91.15;90861.84;4972865;28;20110;-85
2021/07/16 03:41:31;;;;;;;8.10;3.15;;;;;;;10.87;91.45;90856.50;4972439;28;20117;-85
2021/07/16 03:44:10;;;;;;;4.57;2.60;;;;;;;10.88;90.87;90852.81;4971877;28;20033;-85
2021/07/16 03:46:45;;;;;;;6.13;2.60;;;;;;;10.84;90.80;90859.78;4972200;28;20084;-85
2021/07/16 03:49:18;;;;;;;3.63;2.25;;;;;;;10.76;90.66;90858.81;4975248;28;20577;-85
2021/07/16 03:51:55;;;;;;;4.57;2.55;;;;;;;10.69;90.46;90858.63;4976538;28;20030;-85
2021/07/16 03:54:29;;;;;;;4.60;2.90;;;;;;;10.60;90.51;90865.03;4960310;28;20439;-86
2021/07/16 03:57:05;;;;;;;12.02;3.15;;;;;;;10.53;90.62;90860.41;4975872;28;20085;-85
2021/07/16 03:59:44;;;;;;;4.97;2.30;;;;;;;10.63;90.75;90859.19;4976874;28;20031;-85
2021/07/16 04:02:23;;;;;;;7.28;3.20;;;;;;;10.57;91.34;90866.47;4976568;28;20105;-85
2021/07/16 04:04:58;;;;;;;4.50;3.28;;;;;;;10.55;90.96;90865.28;4961360;28;20022;-85
2021/07/16 04:07:33;;;;;;;6.10;3.40;;;;;;;10.53;90.75;90858.56;4976690;28;20034;-85
2021/07/16 04:10:11;;;;;;;6.07;4.13;;;;;;;10.60;91.30;90867.66;4961415;28;20037;-86
2021/07/16 04:12:43;;;;;;;8.70;4.70;;;;;;;10.70;91.61;90864.59;4976949;28;20423;-85
2021/07/16 04:15:22;;;;;;;5.38;3.80;;;;;;;10.75;91.51;90859.16;4959422;28;20037;-85
2021/07/16 04:17:59;;;;;;;6.25;4.25;;;;;;;10.71;91.04;90860.91;4974740;28;20464;-85
2021/07/16 04:20:32;;;;;;;6.05;3.63;;;;;;;10.68;90.95;90858.97;4959878;28;20023;-84
2021/07/16 04:23:11;;;;;;;6.75;4.40;;;;;;;10.75;90.80;90867.00;4975080;28;20058;-85
2021/07/16 04:25:46;;;;;;;9.70;6.38;;;;;;;10.75;91.73;90869.59;4974887;28;20407;-85
2021/07/16 04:28:28;;;;;;;9.95;5.85;;;;;;;10.71;91.88;90860.91;4976960;28;20041;-85
2021/07/16 04:31:04;;;;;;;6.28;3.95;;;;;;;10.82;91.13;90875.00;4976035;28;20037;-85
2021/07/16 04:33:43;;;;;;;9.45;5.68;;;;;;;10.87;91.41;90866.94;4959909;28;20035;-85
2021/07/16 04:36:16;;;;;;;5.40;4.40;;;;;;;10.92;91.28;90871.94;4975886;28;20031;-83
2021/07/16 04:38:50;;;;;;;5.57;4.15;;;;;;;10.91;90.84;90875.63;4975179;28;20396;-85
2021/07/16 04:41:23;;;;;;;7.63;4.45;;;;;;;10.99;90.40;90877.34;4976481;28;20031;-85
2021/07/16 04:44:01;;;;;;;13.15;5.40;;;;;;;10.97;90.79;90874.31;4974421;28;20038;-85
2021/07/16 04:46:41;;;;;;;7.28;4.85;;;;;;;10.91;90.60;90878.22;4974637;28;20026;-85
2021/07/16 04:49:18;;;;;;;8.15;4.97;;;;;;;10.92;91.08;90887.59;4959292;28;20101;-85
2021/07/16 04:51:57;;;;;;;8.73;5.50;;;;;;;11.06;90.71;90889.06;4959014;28;20066;-85
2021/07/16 04:54:34;;;;;;;9.40;5.25;;;;;;;10.98;90.89;90890.72;4974411;28;20050;-85
2021/07/16 04:57:12;;;;;;;7.75;4.97;;;;;;;10.99;91.46;90906.03;4974649;28;20125;-86
2021/07/16 04:59:47;;;;;;;9.52;6.13;;;;;;;11.18;91.36;90904.69;4957361;28;20054;-85
2021/07/16 05:02:27;;;;;;;7.90;6.03;;;;;;;11.08;91.68;90903.28;4974702;28;20019;-85
2021/07/16 05:05:04;;;;;;;9.63;5.65;;;;;;;11.22;91.20;90901.06;4975092;28;20026;-84
2021/07/16 05:07:47;;;;;;;8.75;5.68;;;;;;;11.18;91.48;90915.13;4960531;28;20027;-85
2021/07/16 05:10:24;;;;;;;8.13;5.80;;;;;;;11.24;91.30;90916.41;4990813;28;20090;-85
2021/07/16 05:12:59;;;;;;;7.85;5.88;;;;;;;11.17;91.38;90916.22;4975170;28;20031;-86
2021/07/16 05:15:35;;;;;;;9.60;6.00;;;;;;;11.18;91.32;90918.47;4959065;28;20487;-84
2021/07/16 05:18:11;;;;;;;8.32;5.35;;;;;;;11.26;91.19;90922.03;4974695;28;20380;-85
2021/07/16 05:20:52;;;;;;;8.98;4.85;;;;;;;11.32;91.24;90922.56;4974834;28;20026;-85
2021/07/16 05:23:29;;;;;;;6.70;4.75;;;;;;;11.33;91.23;90913.66;4974047;28;20038;-85
2021/07/16 05:26:00;;;;;;;8.63;5.03;;;;;;;11.39;91.00;90915.69;4959684;28;20030;-85
2021/07/16 05:28:34;;;;;;;8.48;4.72;;;;;;;11.42;90.94;90915.03;4943739;28;20046;-85
2021/07/16 05:31:15;;;;;;;12.20;6.45;;;;;;;11.41;90.59;90918.75;4975594;28;20031;-85
2021/07/16 05:33:45;;;;;;;9.02;6.13;;;;;;;11.37;90.47;90920.47;4976317;28;20442;-86
2021/07/16 05:36:22;;;;;;;13.38;7.32;;;;;;;11.44;90.38;90925.88;4975130;28;20027;-85
2021/07/16 05:39:04;;;;;;;23.20;11.63;;;;;;;11.47;90.21;90933.03;4975385;28;20027;-85
2021/07/16 05:41:40;;;;;;;36.90;15.25;;;;;;;11.51;90.27;90932.38;4960298;28;20034;-85
2021/07/16 05:44:18;;;;;;;33.35;14.75;;;;;;;11.63;89.94;90929.75;4958929;28;20491;-85
2021/07/16 05:46:45;;;;;;;16.92;8.88;;;;;;;11.62;89.82;90930.81;4990631;28;20406;-85
2021/07/16 05:49:14;;;;;;;9.65;5.32;;;;;;;11.59;90.23;90932.25;4973456;28;20022;-86
2021/07/16 05:51:51;;;;;;;12.05;7.63;;;;;;;11.63;90.34;90937.56;4969120;28;20035;-85
2021/07/16 05:54:18;;;;;;;25.20;13.32;;;;;;;11.79;90.28;90937.59;4973287;28;20093;-85
2021/07/16 05:56:45;;;;;;;43.15;19.85;;;;;;;11.85;89.73;90942.28;4971737;28;20118;-85
2021/07/16 05:59:10;;;;;;;29.27;15.88;;;;;;;11.89;90.20;90937.13;4973007;28;20055;-85
2021/07/16 06:01:39;;;;;;;28.15;14.45;;;;;;;11.96;89.93;90947.75;4972787;28;20499;-85
2021/07/16 06:04:13;;;;;;;26.58;13.50;;;;;;;12.00;89.53;90940.78;4974417;28;20106;-84
2021/07/16 06:06:39;;;;;;;;;;;;;;;12.14;88.88;90956.78;4974010;28;20031;-83
2021/07/16 06:09:09;;;;;;;39.00;18.05;;;;;;;12.16;88.67;90951.25;4973104;28;19921;-82
2021/07/16 06:11:44;;;;;;;20.55;11.48;;;;;;;12.25;89.23;90951.81;4973198;28;20023;-85
2021/07/16 06:14:14;;;;;;;10.65;6.78;;;;;;;12.27;88.78;90959.34;4978847;28;20023;-85
2021/07/16 06:16:43;;;;;;;11.23;6.68;;;;;;;12.35;88.76;90958.41;4963690;28;20061;-85
2021/07/16 06:19:09;;;;;;;9.13;6.47;;;;;;;12.46;88.56;90958.66;4975544;28;20023;-84
2021/07/16 06:21:35;;;;;;;10.95;7.10;;;;;;;12.49;87.92;90963.22;4975966;28;20019;-86
2021/07/16 06:24:01;;;;;;;11.68;7.07;;;;;;;12.59;89.41;90960.09;4955500;28;20534;-85
2021/07/16 06:26:30;;;;;;;12.52;8.50;;;;;;;12.67;89.21;90964.38;4969780;28;20038;-85
2021/07/16 06:29:00;;;;;;;11.93;7.60;;;;;;;12.59;89.22;90950.41;4974858;28;20455;-86
2021/07/16 06:31:34;;;;;;;14.65;8.30;;;;;;;12.68;89.16;90958.06;4974774;28;20468;-83
2021/07/16 06:34:01;;;;;;;10.52;7.57;;;;;;;12.77;88.93;90958.66;4975153;28;20039;-84
2021/07/16 06:36:32;;;;;;;10.13;7.20;;;;;;;12.90;88.09;90961.94;4959299;28;20117;-85
2021/07/16 06:38:59;;;;;;;11.25;6.57;;;;;;;12.90;87.50;90967.16;4975173;28;20030;-85
2021/07/16 06:41:27;;;;;;;9.80;6.40;;;;;;;12.91;85.60;90963.44;4974595;28;20031;-85
2021/07/16 06:43:59;;;;;;;9.80;6.43;;;;;;;13.00;85.89;90958.00;4957465;28;20034;-85
2021/07/16 06:46:30;;;;;;;8.70;5.80;;;;;;;13.09;85.42;90969.81;4956398;28;20026;-85
2021/07/16 06:48:59;;;;;;;10.27;5.75;;;;;;;13.15;85.73;90975.56;4973653;28;20034;-85
2021/07/16 06:51:28;;;;;;;8.82;6.10;;;;;;;13.30;85.80;90969.53;4975024;28;20034;-85
2021/07/16 06:53:54;;;;;;;10.50;6.22;;;;;;;13.48;85.20;90975.13;4957693;28;20031;-85
2021/07/16 06:56:21;;;;;;;8.20;5.85;;;;;;;13.58;84.66;90971.97;4973243;28;20097;-84
2021/07/16 06:58:51;;;;;;;9.80;6.97;;;;;;;13.80;86.25;90978.38;4958520;28;20023;-85
2021/07/16 07:01:20;;;;;;;8.65;5.78;;;;;;;14.01;83.41;90980.63;4975133;28;20113;-85
2021/07/16 07:03:54;;;;;;;7.97;5.53;;;;;;;14.01;82.64;90987.75;4975950;28;20518;-86
2021/07/16 07:06:20;;;;;;;6.03;4.80;;;;;;;14.15;82.00;90980.13;4968598;28;20055;-85
2021/07/16 07:08:49;;;;;;;8.05;5.70;;;;;;;14.20;82.73;90987.69;4971821;28;20093;-85
2021/07/16 07:11:15;;;;;;;8.23;5.10;;;;;;;14.25;82.65;90987.44;4965100;28;20074;-86
2021/07/16 07:13:44;;;;;;;7.70;5.53;;;;;;;14.19;82.61;90991.44;4941068;29;20372;-85
2021/07/16 07:16:16;;;;;;;6.32;4.90;;;;;;;13.95;80.97;90996.97;4970859;28;20381;-85
2021/07/16 07:18:44;;;;;;;6.88;4.85;;;;;;;13.87;81.86;90994.22;4944546;28;20506;-85
2021/07/16 07:21:14;;;;;;;7.93;5.43;;;;;;;13.90;82.25;90997.25;4957462;28;20034;-84
2021/07/16 07:23:41;;;;;;;6.78;5.18;;;;;;;13.90;81.93;90997.25;4976572;28;20502;-85
2021/07/16 07:26:07;;;;;;;7.32;4.80;;;;;;;14.06;82.02;90996.09;4958812;28;20569;-86
2021/07/16 07:28:35;;;;;;;8.13;4.60;;;;;;;14.22;80.79;90990.00;4990759;28;20062;-85
2021/07/16 07:31:01;;;;;;;9.93;5.60;;;;;;;14.66;84.03;90995.63;4972165;28;20030;-85
2021/07/16 07:33:30;;;;;;;8.38;4.50;;;;;;;14.90;81.50;91002.38;4954874;29;20030;-87
2021/07/16 07:35:57;;;;;;;7.55;4.40;;;;;;;14.92;80.28;91012.53;4946093;28;20027;-84
2021/07/16 07:38:26;;;;;;;5.70;4.43;;;;;;;15.07;77.41;91007.13;4957972;28;20537;-85
2021/07/16 07:40:54;;;;;;;6.00;4.10;;;;;;;14.95;77.66;91009.22;4975210;28;20113;-85
2021/07/16 07:43:22;;;;;;;6.78;4.20;;;;;;;15.11;79.77;91014.31;4956874;28;20050;-85
2021/07/16 07:45:51;;;;;;;6.40;4.28;;;;;;;15.05;77.83;91019.88;4972006;28;20031;-85
2021/07/16 07:48:19;;;;;;;6.40;3.50;;;;;;;15.17;76.08;91026.03;4972247;28;20027;-85
2021/07/16 07:50:46;;;;;;;4.50;3.22;;;;;;;15.22;77.13;91015.97;4956062;28;20024;-85
2021/07/16 07:53:13;;;;;;;5.75;4.00;;;;;;;15.33;76.34;91018.00;4971938;28;20050;-85
2021/07/16 07:55:39;;;;;;;5.97;3.33;;;;;;;15.41;74.05;91015.13;4956037;28;20022;-83
2021/07/16 07:58:04;;;;;;;6.50;3.70;;;;;;;15.42;75.92;91010.63;4957666;28;20076;-85
2021/07/16 08:00:30;;;;;;;6.53;3.42;;;;;;;15.08;72.72;91010.50;4989871;28;20023;-85
2021/07/16 08:02:56;;;;;;;4.90;3.42;;;;;;;15.29;76.04;91007.44;4974400;28;20495;-85
2021/07/16 08:05:21;;;;;;;5.20;3.10;;;;;;;15.38;74.52;91017.69;4957423;28;20082;-85
2021/07/16 08:07:47;;;;;;;6.70;3.75;;;;;;;15.20;73.75;91014.81;4972637;28;20027;-85
2021/07/16 08:10:18;;;;;;;5.68;3.28;;;;;;;15.10;75.94;91018.78;4973607;28;20538;-85
2021/07/16 08:12:50;;;;;;;6.68;3.65;;;;;;;14.94;75.58;91029.41;4973756;28;20030;-85
2021/07/16 08:15:20;;;;;;;6.15;3.55;;;;;;;14.80;78.91;91018.69;4973375;28;20022;-85
2021/07/16 08:17:47;;;;;;;8.93;3.58;;;;;;;14.74;78.17;91023.50;4973341;28;20475;-85
2021/07/16 08:20:12;;;;;;;6.13;3.67;;;;;;;14.57;78.74;91023.97;4957103;28;20081;-85
2021/07/16 08:22:40;;;;;;;7.45;3.30;;;;;;;14.63;78.74;91019.94;4957537;28;20101;-83
2021/07/16 08:25:08;;;;;;;5.70;3.40;;;;;;;14.54;79.49;91017.53;4957502;28;20028;-86
2021/07/16 08:27:42;;;;;;;6.38;3.65;;;;;;;14.67;79.13;91025.25;4941026;29;20062;-86
2021/07/16 08:30:08;;;;;;;7.22;3.80;;;;;;;14.61;81.19;91019.53;4956823;29;20037;-85
2021/07/16 08:32:42;;;;;;;6.32;3.50;;;;;;;14.79;79.27;91028.44;4941365;28;20027;-85
2021/07/16 08:35:11;;;;;;;7.38;3.60;;;;;;;14.72;78.26;91023.06;4960191;28;20094;-85
2021/07/16 08:37:37;;;;;;;5.22;3.33;;;;;;;14.80;77.87;91022.06;4944380;28;20046;-86
2021/07/16 08:40:08;;;;;;;7.15;3.58;;;;;;;14.89;80.31;91034.22;4965466;28;20034;-85
2021/07/16 08:42:35;;;;;;;4.90;3.28;;;;;;;14.95;79.36;91035.44;4961465;28;20050;-85
2021/07/16 08:45:02;;;;;;;4.22;3.20;;;;;;;15.19;77.96;91029.03;4980667;28;20081;-85
2021/07/16 08:47:28;;;;;;;7.25;3.17;;;;;;;15.14;74.23;91034.59;4969208;28;20098;-85
2021/07/16 08:49:58;;;;;;;3.72;3.13;;;;;;;15.09;75.96;91035.66;4979226;28;20026;-85
2021/07/16 08:52:26;;;;;;;9.30;3.58;;;;;;;14.94;78.42;91039.91;4963113;28;20466;-86
2021/07/16 08:54:53;;;;;;;5.72;3.45;;;;;;;14.87;78.75;91044.28;4979044;28;20041;-85
2021/07/16 08:57:24;;;;;;;5.38;3.70;;;;;;;14.73;79.25;91042.94;4978381;28;20562;-85
2021/07/16 08:59:49;;;;;;;4.85;3.33;;;;;;;14.59;80.71;91045.31;4994457;28;20085;-85
2021/07/16 09:02:15;;;;;;;4.43;3.17;;;;;;;14.60;80.51;91049.50;4978471;28;20026;-85
2021/07/16 09:04:41;;;;;;;5.45;3.17;;;;;;;14.40;79.84;91053.97;4978428;28;20058;-85
2021/07/16 09:07:06;;;;;;;5.03;2.75;;;;;;;14.53;80.68;91052.00;4978660;28;20023;-85
2021/07/16 09:09:36;;;;;;;3.67;2.70;;;;;;;14.50;79.60;91048.19;5020579;23;20069;-87
2021/07/16 09:12:02;;;;;;;3.47;2.60;;;;;;;14.56;80.44;91041.56;4992949;28;20453;-85
2021/07/16 09:14:28;;;;;;;4.25;2.88;;;;;;;14.53;82.20;91038.88;4976430;28;20584;-86
2021/07/16 09:17:10;;;;;;;3.58;2.75;;;;;;;15.13;80.17;91049.59;5008775;28;20019;-85
2021/07/16 09:19:37;;;;;;;4.13;2.75;;;;;;;15.10;78.47;91047.66;5008718;28;20019;-86
2021/07/16 09:22:14;;;;;;;2.58;2.30;;;;;;;15.10;79.17;91045.03;4976741;28;20026;-87
2021/07/16 09:24:58;;;;;;;3.80;2.40;;;;;;;15.15;77.94;91043.97;4977221;28;20022;-86
2021/07/16 09:27:42;;;;;;;3.25;2.40;;;;;;;15.29;78.67;91044.94;4978107;28;20027;-86
2021/07/16 09:30:20;;;;;;;3.10;2.13;;;;;;;15.17;76.82;91042.53;4976163;28;20045;-85
2021/07/16 09:33:05;;;;;;;5.28;2.55;;;;;;;14.93;78.44;91037.66;4993373;28;20023;-87
2021/07/16 09:35:40;;;;;;;;;;;;;;;14.98;78.15;91039.97;4993032;28;20030;-85
2021/07/16 09:38:09;;;;;;;6.97;3.97;;;;;;;15.01;80.47;91039.28;4992463;28;19913;-86
2021/07/16 09:40:45;;;;;;;24.50;9.07;;;;;;;15.34;77.46;91040.53;4992745;28;20022;-88
2021/07/16 09:43:15;;;;;;;23.48;10.05;;;;;;;15.11;80.57;91038.69;4977030;28;20022;-88
2021/07/16 09:45:56;;;;;;;3.75;2.78;;;;;;;15.67;77.54;91032.75;4991383;28;20026;-85
2021/07/16 09:48:29;;;;;;;16.20;9.70;;;;;;;16.09;77.29;91026.50;4991899;28;20018;-86
2021/07/16 09:51:24;;;;;;;3.40;2.65;;;;;;;16.37;75.12;91025.31;4993217;28;20033;-86
2021/07/16 09:54:01;;;;;;;8.00;3.05;;;;;;;16.65;76.64;91028.22;4991859;28;20022;-86
2021/07/16 09:56:30;;;;;;;4.10;2.92;;;;;;;16.72;72.21;91025.63;4991611;28;20034;-85
2021/07/16 09:59:09;;;;;;;4.07;2.70;;;;;;;16.40;68.53;91035.09;4991675;28;20034;-86
2021/07/16 10:01:43;;;;;;;4.00;2.72;;;;;;;16.79;72.96;91040.78;4990500;28;20054;-86
2021/07/16 10:04:19;;;;;;;5.53;2.70;;;;;;;16.45;70.12;91038.16;4992600;28;20406;-86
2021/07/16 10:06:47;;;;;;;5.47;2.75;;;;;;;16.92;72.67;91035.97;4991726;28;20030;-86
2021/07/16 10:09:13;;;;;;;3.38;2.28;;;;;;;17.08;68.67;91036.50;4991139;28;20034;-86
2021/07/16 10:11:38;;;;;;;3.83;2.45;;;;;;;16.86;68.05;91032.19;4991425;28;20020;-84
2021/07/16 10:14:04;;;;;;;2.95;2.13;;;;;;;16.96;68.68;91034.13;4997610;28;20372;-86
2021/07/16 10:16:30;;;;;;;3.65;2.20;;;;;;;16.95;70.08;91037.88;4991359;28;20022;-87
2021/07/16 10:18:56;;;;;;;3.85;2.30;;;;;;;17.02;71.38;91047.72;4992218;28;20018;-87
2021/07/16 10:21:22;;;;;;;4.30;2.42;;;;;;;16.41;69.27;91036.59;4974843;28;20049;-86
2021/07/16 10:23:52;;;;;;;5.00;2.70;;;;;;;15.92;73.91;91050.69;4974937;28;20486;-86
2021/07/16 10:26:21;;;;;;;5.28;2.70;;;;;;;15.76;72.42;91058.78;4975297;28;20058;-86
2021/07/16 10:28:47;;;;;;;3.65;2.97;;;;;;;15.62;77.30;91050.63;4990980;28;20024;-87
2021/07/16 10:31:32;;;;;;;3.83;2.85;;;;;;;15.42;76.29;91053.38;4974410;28;20050;-86
2021/07/16 10:34:04;;;;;;;8.90;3.03;;;;;;;15.41;79.00;91065.00;4991123;28;20114;-85
2021/07/16 10:36:50;;;;;;;4.20;2.92;;;;;;;15.54;77.22;91061.06;4991179;28;20030;-84
2021/07/16 10:39:21;;;;;;;4.15;2.60;;;;;;;15.38;78.22;91070.22;4990575;28;20037;-84
2021/07/16 10:41:50;;;;;;;4.78;3.28;;;;;;;15.32;76.84;91067.13;4974463;28;20138;-86
2021/07/16 10:44:54;;;;;;;4.40;2.88;;;;;;;15.39;77.61;91066.47;4990743;28;20022;-86
2021/07/16 10:47:44;;;;;;;4.57;3.15;;;;;;;15.51;79.84;91071.50;4991374;28;20046;-86
2021/07/16 10:50:30;;;;;;;3.83;3.08;;;;;;;15.45;77.88;91072.94;4987748;28;20170;-84
2021/07/16 10:52:55;;;;;;;4.43;3.38;;;;;;;15.35;78.21;91070.91;4991657;28;20076;-86
2021/07/16 10:55:37;;;;;;;7.55;3.25;;;;;;;15.34;79.63;91082.53;4974167;28;20494;-86
2021/07/16 10:58:28;;;;;;;4.55;3.20;;;;;;;15.28;79.56;91082.81;4990079;28;20034;-87
2021/07/16 11:00:59;;;;;;;5.88;3.10;;;;;;;15.28;78.47;91080.19;4979327;28;20022;-86
2021/07/16 11:03:49;;;;;;;4.82;3.10;;;;;;;15.46;77.36;91082.31;4997249;28;20029;-86
2021/07/16 11:06:16;;;;;;;5.13;3.65;;;;;;;15.64;79.93;91085.22;4997046;28;20057;-86
2021/07/16 11:08:42;;;;;;;4.65;3.28;;;;;;;15.72;79.98;91087.63;4998089;28;20026;-86
2021/07/16 11:11:15;;;;;;;5.55;3.35;;;;;;;15.50;78.26;91085.75;5000212;28;20030;-89
2021/07/16 11:13:49;;;;;;;5.53;3.65;;;;;;;15.54;81.69;91087.31;4981365;28;20406;-87
2021/07/16 11:16:15;;;;;;;5.18;2.95;;;;;;;15.57;76.33;91085.84;4995637;28;20026;-86
2021/07/16 11:19:04;;;;;;;4.50;3.13;;;;;;;15.69;77.30;91093.59;4991038;28;20026;-86
2021/07/16 11:21:40;;;;;;;3.80;2.95;;;;;;;16.08;77.70;91093.34;4991156;28;20030;-87
2021/07/16 11:24:37;;;;;;;4.90;2.72;;;;;;;16.47;74.51;91082.53;4991508;28;20026;-86
2021/07/16 11:27:11;;;;;;;4.05;3.03;;;;;;;16.44;77.43;91088.50;4983030;28;20031;-86
2021/07/16 11:29:38;;;;;;;3.88;2.95;;;;;;;16.62;75.61;91083.41;4970592;28;20495;-86
2021/07/16 11:32:16;;;;;;;4.05;3.03;;;;;;;17.07;78.95;91077.13;4971873;28;20031;-86
2021/07/16 11:34:55;;;;;;;4.25;2.97;;;;;;;17.49;75.67;91075.94;4972367;28;20452;-87
2021/07/16 11:37:30;;;;;;;3.80;3.17;;;;;;;17.49;78.52;91078.56;4974347;28;20098;-86
2021/07/16 11:40:08;;;;;;;4.05;2.95;;;;;;;17.47;76.66;91072.91;4976982;28;20026;-85
2021/07/16 11:42:45;;;;;;;3.35;2.40;;;;;;;17.02;73.30;91072.16;4973980;28;20513;-85
2021/07/16 11:45:14;;;;;;;3.33;2.55;;;;;;;17.11;73.26;91066.63;4974507;28;20398;-85
2021/07/16 11:47:39;;;;;;;3.45;2.67;;;;;;;16.99;74.26;91072.88;4974127;28;20096;-85
2021/07/16 11:50:11;;;;;;;3.75;2.60;;;;;;;16.68;74.03;91069.59;4973896;28;20034;-86
2021/07/16 11:52:39;;;;;;;4.03;2.75;;;;;;;16.62;76.55;91071.03;4974837;28;20033;-85
2021/07/16 11:55:08;;;;;;;3.47;2.70;;;;;;;16.18;75.85;91061.16;4989978;28;20022;-85
2021/07/16 11:57:48;;;;;;;5.13;2.58;;;;;;;16.42;74.12;91065.16;4990428;28;20081;-86
2021/07/16 12:00:14;;;;;;;3.13;2.38;;;;;;;16.19;73.10;91077.69;4989686;28;20026;-86
2021/07/16 12:02:40;;;;;;;3.30;2.40;;;;;;;16.12;74.16;91075.72;4973961;28;20442;-87